Home > Products > Valid Products > TAF

000
FTUS43 KLOT 310842 AAA
TAFDPA
TAF AMD
KDPA 310842Z 3109/0106 10005KT P6SM SCT060
     FM311500 12008KT P6SM SCT050
     FM311900 13008KT P6SM SCT050 BKN100
      TEMPO 3121/0101 3SM TSRA OVC050CB
     FM010300 13009KT P6SM SCT050 BKN080=



000
FTUS43 KLOT 310842 AAA
TAFGYY
TAF AMD
KGYY 310842Z 3109/0106 06004KT P6SM SCT120
     FM311500 10008KT P6SM SCT050
     FM311900 07010KT P6SM SCT050 BKN100 PROB30 3121/0102 4SM TSRA
      OVC060CB
     FM010300 12009KT P6SM SCT050 BKN080=



000
FTUS43 KLOT 310842 AAA
TAFORD
TAF AMD
KORD 310842Z 3109/0112 10005KT P6SM SCT060 SCT250
     FM311500 11007KT P6SM SCT050
     FM311900 12009KT P6SM SCT050 BKN100 PROB30 3121/0102 4SM TSRA
      OVC060CB
     FM010300 13007KT P6SM SCT050 BKN080=



000
FTUS43 KLOT 310842 AAA
TAFMDW
TAF AMD
KMDW 310842Z 3109/0106 09005KT P6SM SCT060 SCT250
     FM311500 11008KT P6SM SCT050
     FM311900 10009KT P6SM SCT050 BKN100 PROB30 3121/0102 4SM TSRA
      OVC060CB
     FM010300 13009KT P6SM SCT050 BKN080=



000
FTUS43 KLOT 302351 CCA
TAFDPA
TAF COR
KDPA 302351Z 3100/3124 30008KT P6SM FEW080
     FM310500 12005KT P6SM SCT120
     FM311500 15008KT P6SM SCT050
     FM311900 14008KT P6SM SCT050 BKN100=



000
FTUS43 KLOT 302351 CCA
TAFRFD
TAF COR
KRFD 302351Z 3100/3124 33006KT P6SM FEW080
     FM310500 12005KT P6SM SCT120
     FM311500 15008KT P6SM SCT050
     FM311900 14008KT P6SM SCT050 BKN100=



000
FTUS43 KLOT 302351 CCA
TAFGYY
TAF COR
KGYY 302351Z 3100/3124 07008KT P6SM FEW080
     FM310500 12005KT P6SM SCT120
     FM311500 15008KT P6SM SCT050
     FM311900 14008KT P6SM SCT050 BKN100=



000
FTUS43 KLOT 302341
TAFORD
TAF
KORD 302341Z 3100/0106 07008KT P6SM FEW080
     FM310500 12005KT P6SM SCT120
     FM311500 15008KT P6SM SCT050
     FM311900 14008KT P6SM VCSH SCT050 BKN100
     FM010300 13009KT P6SM SCT050 BKN080=



000
FTUS43 KLOT 302341
TAFRFD
TAF
KRFD 302341Z 3100/3124 33006KT P6SM FEW080
     FM310500 12005KT P6SM SCT120
     FM311500 15008KT P6SM SCT050
     FM311900 14008KT P6SM VCSH SCT050 BKN100=



000
FTUS43 KLOT 302341
TAFDPA
TAF
KDPA 302341Z 3100/3124 30008KT P6SM FEW080
     FM310500 12005KT P6SM SCT120
     FM311500 15008KT P6SM SCT050
     FM311900 14008KT P6SM VCSH SCT050 BKN100=



000
FTUS43 KLOT 302341
TAFGYY
TAF
KGYY 302341Z 3100/3124 07008KT P6SM FEW080
     FM310500 12005KT P6SM SCT120
     FM311500 15008KT P6SM SCT050
     FM311900 14008KT P6SM VCSH SCT050 BKN100=



000
FTUS43 KLOT 302341
TAFMDW
TAF
KMDW 302341Z 3100/3124 07008KT P6SM FEW080
     FM310500 12005KT P6SM SCT120
     FM311500 15008KT P6SM SCT050
     FM311900 14008KT P6SM VCSH SCT050 BKN100=



000
FTUS43 KLOT 301730
TAFORD
TAF
KORD 301730Z 3018/3124 28009G15KT P6SM FEW040 SCT250
     FM302100 07010KT P6SM SKC
     FM310500 12005KT P6SM SCT120
     FM311500 15008KT P6SM SCT050=



000
FTUS43 KLOT 301730
TAFDPA
TAF
KDPA 301730Z 3018/3118 27009G15KT P6SM SKC
     FM310000 07008KT P6SM SKC
     FM310500 11004KT P6SM SCT120
     FM311500 17008KT P6SM SCT050=



000
FTUS43 KLOT 301730
TAFGYY
TAF
KGYY 301730Z 3018/3118 05010G15KT P6SM SCT060 SCT250
     FM310500 10004KT P6SM SCT120
     FM311400 15007KT P6SM SKC=



000
FTUS43 KLOT 301730
TAFMDW
TAF
KMDW 301730Z 3018/3118 27011G15KT P6SM FEW050 SCT250
     FM302000 06010KT P6SM SKC
     FM310500 12005KT P6SM SCT120
     FM311500 15008KT P6SM SCT050=



000
FTUS43 KLOT 301730
TAFRFD
TAF
KRFD 301730Z 3018/3118 29010G15KT P6SM FEW045 SCT250
     FM310100 11006KT P6SM SCT120
     FM311500 17008KT P6SM SCT050=



000
FTUS43 KLOT 301120
TAFORD
TAF
KORD 301120Z 3012/3118 27005KT P6SM SCT050
     FM301500 29007KT P6SM SCT060
     FM302100 07010KT P6SM SKC
     FM310500 12005KT P6SM SCT120
     FM311500 15008KT P6SM SCT050=



000
FTUS43 KLOT 301120
TAFMDW
TAF
KMDW 301120Z 3012/3112 26004KT P6SM SCT050
     FM301500 29007KT P6SM SCT060
     FM302000 06010KT P6SM SKC
     FM310500 12005KT P6SM SCT120=



000
FTUS43 KLOT 301120
TAFDPA
TAF
KDPA 301120Z 3012/3112 26002KT P6SM SCT060
     FM301500 28007KT P6SM SCT060
     FM310000 07008KT P6SM SKC
     FM310500 11004KT P6SM SCT120=



000
FTUS43 KLOT 301120
TAFRFD
TAF
KRFD 301120Z 3012/3112 24002KT P6SM SCT060
     FM301500 29007KT P6SM SCT060
     FM310100 11006KT P6SM SCT120=



000
FTUS43 KLOT 301120
TAFGYY
TAF
KGYY 301120Z 3012/3112 24003KT P6SM SCT060
     FM301500 28007KT P6SM FEW060
     FM301900 04010KT P6SM SKC
     FM310500 10004KT P6SM SCT120=



000
FTUS43 KLOT 290314 AAA
TAFRFD
TAF AMD
KRFD 290314Z 2903/2924 19008KT P6SM SCT250
     FM291500 26014G22KT P6SM FEW050=



000
FTUS43 KLOT 290314 AAC
TAFORD
TAF AMD
KORD 290314Z 2903/3006 27012G20KT P6SM VCTS OVC100CB
      TEMPO 2903/2905 -TSRA OVC050CB
     FM290500 20010KT P6SM SCT250
     FM291500 23014G22KT P6SM SCT050
     FM292100 27014G22KT P6SM FEW060
     FM300200 24006KT P6SM SKC=



000
FTUS43 KLOT 290314 AAB
TAFMDW
TAF AMD
KMDW 290314Z 2903/2924 20010KT P6SM VCTS OVC100CB
      TEMPO 2904/2905 3SM -TSRA OVC050CB
     FM290530 20010KT P6SM SCT250
     FM291500 23014G22KT P6SM SCT050
     FM292100 27014G22KT P6SM FEW060=



000
FTUS43 KLOT 290314 AAB
TAFDPA
TAF AMD
KDPA 290314Z 2903/2924 18015G23KT P6SM SCT040 SCT250
      TEMPO 2903/2904 3SM -TSRA OVC030CB
     FM291500 23014G22KT P6SM SCT050
     FM292100 27014G22KT P6SM FEW060=



000
FTUS43 KLOT 290044 AAA
TAFDPA
TAF AMD
KDPA 290044Z 2901/2924 18015G23KT P6SM VCTS SCT040CB SCT250
      TEMPO 2902/2904 3SM -TSRA OVC030CB
     FM291500 23014G22KT P6SM SCT050
     FM292100 27014G22KT P6SM FEW060=



000
FTUS43 KLOT 290041 AAA
TAFMDW
TAF AMD
KMDW 290041Z 2901/2924 18015G23KT P6SM SCT040 SCT250
     FM290200 20010KT P6SM VCTS SCT040CB SCT250
      TEMPO 2903/2904 3SM -TSRA OVC030CB
     FM290500 20010KT P6SM SCT250
     FM291500 23014G22KT P6SM SCT050
     FM292100 27014G22KT P6SM FEW060=



000
FTUS43 KLOT 282323
TAFMDW
TAF
KMDW 282323Z 2900/2924 18015G23KT P6SM SCT040 SCT250
     FM290200 20010KT P6SM SCT250
      TEMPO 2903/2904 3SM -TSRA OVC030CB
     FM291500 23014G22KT P6SM SCT050
     FM292100 27014G22KT P6SM FEW060=



000
FTUS43 KLOT 282323
TAFDPA
TAF
KDPA 282323Z 2900/2924 18015G23KT P6SM SCT040 SCT250
     FM290200 20010KT P6SM SCT250
      TEMPO 2902/2904 3SM -TSRA OVC030CB
     FM291500 23014G22KT P6SM SCT050
     FM292100 27014G22KT P6SM FEW060=



000
FTUS43 KLOT 282323
TAFGYY
TAF
KGYY 282323Z 2900/2924 18014G22KT P6SM SCT040 SCT250
     FM290200 19010KT P6SM SCT250
      TEMPO 2904/2905 3SM -TSRA OVC030CB
     FM291500 22012G25KT P6SM SCT050
     FM292100 26012G25KT P6SM FEW060=



000
FTUS43 KLOT 282323
TAFORD
TAF
KORD 282323Z 2900/3006 19015G23KT P6SM SCT040 SCT250
     FM290200 20010KT P6SM SCT250
      TEMPO 2903/2904 3SM -TSRA OVC030CB
     FM291500 23014G22KT P6SM SCT050
     FM292100 27014G22KT P6SM FEW060
     FM300200 24006KT P6SM SKC=



000
FTUS43 KLOT 282323
TAFRFD
TAF
KRFD 282323Z 2900/2924 19014G22KT 5SM -TSRA BKN040CB BKN250
      TEMPO 2900/2902 25025G35KT 1SM +TSRA OVC030CB
     FM290200 19008KT P6SM SCT250
     FM291500 26014G22KT P6SM FEW050=



    US Dept of Commerce
    National Oceanic and Atmospheric Administration
    National Weather Service
    1325 East West Highway
    Silver Spring, MD 20910
    Page Author: NWS Internet Services Team
Disclaimer
Information Quality
Credits
Glossary
Privacy Policy
Freedom of Information Act (FOIA)
About Us
Career Opportunities